Time;durP1;ratioP1;P1;durP2;ratioP2;P2;SDS_P1;SDS_P2;PMS_P1;PMS_P2;Temp;Humidity;BMP_temperature;BMP_pressure;BME280_temperature;BME280_humidity;BME280_pressure;Samples;Min_cycle;Max_cycle;Signal;HPM_P1;HPM_P2
2021/06/25 00:01:03;;;;;;;15.70;12.40;;;18.80;88.10;;;;;;5054747;28;20492;-41
2021/06/25 00:03:30;;;;;;;16.90;14.10;;;18.80;88.20;;;;;;5058229;28;20454;-40
2021/06/25 00:05:57;;;;;;;19.23;14.10;;;18.80;88.30;;;;;;5072773;28;20457;-41
2021/06/25 00:08:24;;;;;;;18.60;13.70;;;18.80;88.10;;;;;;5086214;28;20464;-41
2021/06/25 00:10:51;;;;;;;17.00;14.10;;;18.80;88.10;;;;;;5058184;28;20460;-41
2021/06/25 00:13:17;;;;;;;21.03;14.97;;;18.80;88.30;;;;;;5058412;28;20970;-41
2021/06/25 00:15:44;;;;;;;18.90;15.27;;;18.70;88.40;;;;;;5060138;28;20465;-40
2021/06/25 00:18:11;;;;;;;25.50;17.37;;;18.70;88.50;;;;;;5053423;28;20478;-41
2021/06/25 00:20:38;;;;;;;22.10;16.70;;;18.70;88.40;;;;;;5084364;28;20458;-41
2021/06/25 00:23:04;;;;;;;22.37;16.87;;;18.70;88.50;;;;;;5085539;28;20480;-41
2021/06/25 00:25:32;;;;;;;21.47;16.87;;;18.70;88.60;;;;;;5058078;28;20488;-41
2021/06/25 00:27:59;;;;;;;24.03;16.87;;;18.70;88.70;;;;;;5089551;28;20457;-40
2021/06/25 00:30:26;;;;;;;25.40;18.07;;;18.70;88.50;;;;;;5057224;28;20651;-41
2021/06/25 00:32:53;;;;;;;23.30;17.43;;;18.70;88.50;;;;;;5055676;28;20519;-41
2021/06/25 00:35:20;;;;;;;32.73;19.60;;;18.70;88.50;;;;;;5056523;28;20462;-41
2021/06/25 00:37:47;;;;;;;26.17;19.27;;;18.70;88.50;;;;;;5054492;28;20951;-41
2021/06/25 00:40:14;;;;;;;28.67;20.90;;;18.70;88.40;;;;;;5060494;28;20461;-41
2021/06/25 00:42:41;;;;;;;26.73;21.03;;;18.70;88.50;;;;;;5056589;28;20512;-41
2021/06/25 00:45:14;;;;;;;24.53;20.23;;;18.70;88.50;;;;;;5057860;28;20482;-41
2021/06/25 00:47:46;;;;;;;26.97;20.20;;;18.70;88.50;;;;;;5060037;28;20451;-41
2021/06/25 00:50:16;;;;;;;26.33;21.20;;;18.60;88.50;;;;;;5055231;28;20458;-42
2021/06/25 00:52:43;;;;;;;31.77;19.70;;;18.60;88.60;;;;;;5057877;28;20466;-41
2021/06/25 00:55:11;;;;;;;27.97;21.60;;;18.60;88.60;;;;;;5058094;28;20470;-41
2021/06/25 00:57:38;;;;;;;32.00;22.27;;;18.70;88.50;;;;;;5055253;28;20876;-41
2021/06/25 01:00:06;;;;;;;30.30;22.70;;;18.70;88.60;;;;;;5060534;28;20463;-41
2021/06/25 01:02:33;;;;;;;30.63;23.37;;;18.60;88.60;;;;;;5054493;28;20458;-41
2021/06/25 01:05:00;;;;;;;28.70;21.30;;;18.70;88.60;;;;;;5056753;28;20478;-41
2021/06/25 01:07:30;;;;;;;35.07;24.73;;;18.70;88.60;;;;;;5061541;28;20465;-41
2021/06/25 01:09:57;;;;;;;36.30;25.60;;;18.70;88.60;;;;;;5055637;28;20457;-41
2021/06/25 01:12:24;;;;;;;33.50;23.40;;;18.60;88.60;;;;;;5060811;28;20480;-41
2021/06/25 01:14:52;;;;;;;32.03;24.43;;;18.60;88.50;;;;;;5054397;28;20461;-41
2021/06/25 01:17:34;;;;;;;31.57;24.03;;;18.60;88.60;;;;;;5059346;28;20464;-42
2021/06/25 01:20:06;;;;;;;30.87;23.30;;;18.60;88.80;;;;;;5089801;28;20459;-41
2021/06/25 01:22:38;;;;;;;31.43;23.10;;;18.60;88.80;;;;;;5059568;28;20958;-41
2021/06/25 01:25:11;;;;;;;36.30;24.30;;;18.60;89.00;;;;;;5065530;28;20489;-41
2021/06/25 01:27:38;;;;;;;33.13;23.33;;;18.60;89.10;;;;;;5062949;28;20461;-41
2021/06/25 01:30:27;;;;;;;31.40;22.83;;;18.50;89.10;;;;;;5063014;28;20454;-41
2021/06/25 01:32:56;;;;;;;33.30;22.23;;;18.50;89.20;;;;;;5090150;28;20472;-41
2021/06/25 01:35:23;;;;;;;35.23;25.00;;;18.50;89.30;;;;;;5090457;28;20477;-41
2021/06/25 01:37:50;;;;;;;31.67;22.77;;;18.50;89.30;;;;;;5058123;28;20511;-41
2021/06/25 01:40:19;;;;;;;29.00;22.33;;;18.50;89.30;;;;;;5091560;27;20455;-41
2021/06/25 01:42:48;;;;;;;30.70;20.63;;;18.50;89.40;;;;;;5061901;28;20759;-41
2021/06/25 01:45:18;;;;;;;28.63;21.57;;;18.50;89.30;;;;;;5060577;28;20524;-41
2021/06/25 01:47:46;;;;;;;24.70;21.00;;;18.50;89.40;;;;;;5061975;28;20445;-41
2021/06/25 01:50:18;;;;;;;26.70;20.30;;;18.50;89.30;;;;;;5063644;28;20450;-40
2021/06/25 01:52:55;;;;;;;26.77;20.63;;;18.50;89.30;;;;;;5063678;28;20454;-41
2021/06/25 01:55:23;;;;;;;26.43;20.33;;;18.50;89.30;;;;;;5059060;28;20466;-41
2021/06/25 01:57:50;;;;;;;27.17;20.80;;;18.50;89.30;;;;;;5059909;28;20458;-41
2021/06/25 02:00:17;;;;;;;27.00;19.77;;;18.50;89.30;;;;;;5089230;28;20537;-41
2021/06/25 02:02:44;;;;;;;25.20;20.50;;;18.40;89.30;;;;;;5090332;27;20458;-41
2021/06/25 02:05:14;;;;;;;23.30;20.07;;;18.50;89.30;;;;;;5064842;28;20491;-41
2021/06/25 02:07:41;;;;;;;23.47;18.13;;;18.50;89.20;;;;;;5085953;28;20987;-41
2021/06/25 02:10:10;;;;;;;24.80;20.33;;;18.50;89.30;;;;;;5061328;28;20468;-41
2021/06/25 02:12:38;;;;;;;27.23;21.07;;;18.50;89.40;;;;;;5062818;28;20497;-41
2021/06/25 02:15:07;;;;;;;26.40;19.00;;;18.40;89.40;;;;;;5056891;28;20476;-41
2021/06/25 02:17:34;;;;;;;24.50;19.27;;;18.40;89.40;;;;;;5056555;28;20467;-41
2021/06/25 02:20:00;;;;;;;22.90;19.13;;;18.40;89.40;;;;;;5060952;28;20458;-41
2021/06/25 02:22:27;;;;;;;21.93;17.70;;;18.40;89.40;;;;;;5060435;28;20457;-41
2021/06/25 02:24:54;;;;;;;23.40;19.13;;;18.50;89.30;;;;;;5059392;28;20857;-41
2021/06/25 02:27:20;;;;;;;23.77;18.70;;;18.50;89.30;;;;;;5093991;27;20458;-41
2021/06/25 02:29:47;;;;;;;25.23;17.23;;;18.50;89.10;;;;;;5057978;28;20823;-41
2021/06/25 02:32:14;;;;;;;22.27;18.60;;;18.50;89.00;;;;;;5061986;28;20450;-41
2021/06/25 02:34:41;;;;;;;20.57;17.47;;;18.50;88.60;;;;;;5054448;28;20675;-41
2021/06/25 02:37:07;;;;;;;23.90;18.50;;;18.40;88.60;;;;;;5056261;28;20494;-41
2021/06/25 02:39:34;;;;;;;21.20;18.53;;;18.40;88.60;;;;;;5059301;28;20496;-41
2021/06/25 02:42:01;;;;;;;21.67;17.50;;;18.40;88.70;;;;;;5089021;27;20877;-41
2021/06/25 02:44:27;;;;;;;23.17;17.93;;;18.40;88.70;;;;;;5063081;28;20457;-41
2021/06/25 02:46:54;;;;;;;21.13;17.27;;;18.40;88.70;;;;;;5056287;28;20484;-41
2021/06/25 02:49:21;;;;;;;26.53;18.80;;;18.30;88.70;;;;;;5061980;28;20461;-41
2021/06/25 02:51:48;;;;;;;23.00;18.20;;;18.30;88.80;;;;;;5087715;28;20454;-41
2021/06/25 02:54:15;;;;;;;20.60;16.13;;;18.30;88.70;;;;;;5059594;28;20457;-43
2021/06/25 02:56:41;;;;;;;27.07;20.97;;;18.30;88.60;;;;;;5065517;28;20458;-43
2021/06/25 02:59:08;;;;;;;31.33;20.83;;;18.30;88.70;;;;;;5061056;28;20480;-43
2021/06/25 03:01:35;;;;;;;30.43;21.90;;;18.20;88.50;;;;;;5059575;28;20474;-43
2021/06/25 03:04:01;;;;;;;29.30;22.27;;;18.20;88.50;;;;;;5057772;28;20457;-44
2021/06/25 03:06:28;;;;;;;27.00;22.83;;;18.20;88.40;;;;;;5054418;28;20985;-43
2021/06/25 03:08:55;;;;;;;26.70;21.83;;;18.20;88.30;;;;;;5058781;28;20840;-43
2021/06/25 03:11:21;;;;;;;29.17;22.90;;;18.20;88.40;;;;;;5061298;28;20459;-43
2021/06/25 03:13:49;;;;;;;32.13;23.20;;;18.10;88.50;;;;;;5059359;28;20820;-43
2021/06/25 03:16:16;;;;;;;26.83;20.90;;;18.10;88.40;;;;;;5072582;28;20934;-43
2021/06/25 03:18:43;;;;;;;30.30;21.60;;;18.10;88.50;;;;;;5056310;28;21009;-43
2021/06/25 03:21:09;;;;;;;29.27;23.93;;;18.10;88.40;;;;;;5057235;28;20465;-43
2021/06/25 03:23:36;;;;;;;31.43;22.73;;;18.10;88.50;;;;;;5064997;28;20454;-43
2021/06/25 03:26:03;;;;;;;33.23;22.93;;;18.10;88.50;;;;;;5090923;27;20524;-43
2021/06/25 03:28:30;;;;;;;23.63;19.33;;;18.10;88.50;;;;;;5064583;28;20449;-43
2021/06/25 03:30:57;;;;;;;30.73;21.93;;;18.10;88.30;;;;;;5054489;28;20954;-43
2021/06/25 03:33:24;;;;;;;24.50;21.17;;;18.10;88.30;;;;;;5062730;28;20469;-43
2021/06/25 03:35:51;;;;;;;30.33;21.47;;;18.00;88.50;;;;;;5058894;28;20466;-43
2021/06/25 03:38:18;;;;;;;28.50;21.87;;;18.00;88.60;;;;;;5091083;27;20743;-43
2021/06/25 03:40:45;;;;;;;26.37;21.60;;;18.00;88.70;;;;;;5063347;28;20458;-43
2021/06/25 03:43:12;;;;;;;28.27;21.20;;;17.90;88.70;;;;;;5059848;28;20459;-43
2021/06/25 03:45:39;;;;;;;30.40;22.00;;;17.90;88.80;;;;;;5054082;28;20486;-43
2021/06/25 03:48:06;;;;;;;29.80;22.63;;;17.90;88.80;;;;;;5084912;28;20458;-43
2021/06/25 03:50:33;;;;;;;29.47;21.93;;;17.90;88.80;;;;;;5056365;28;20480;-43
2021/06/25 03:53:02;;;;;;;27.07;21.50;;;17.90;88.70;;;;;;5056352;28;20548;-43
2021/06/25 03:55:30;;;;;;;32.40;21.73;;;17.80;88.70;;;;;;5060110;28;20485;-44
2021/06/25 03:57:57;;;;;;;31.37;23.77;;;17.90;88.80;;;;;;5061042;28;20970;-43
2021/06/25 04:00:24;;;;;;;35.23;24.10;;;17.90;88.60;;;;;;5058236;28;20470;-43
2021/06/25 04:02:51;;;;;;;35.90;27.20;;;17.90;88.40;;;;;;5054768;28;22469;-43
2021/06/25 04:05:18;;;;;;;37.83;27.60;;;17.90;88.10;;;;;;5056031;28;20493;-43
2021/06/25 04:07:44;;;;;;;38.43;27.40;;;17.90;87.50;;;;;;5059238;28;20447;-44
2021/06/25 04:10:13;;;;;;;40.50;28.70;;;17.90;87.60;;;;;;5057278;28;20466;-43
2021/06/25 04:12:53;;;;;;;40.43;28.73;;;17.90;87.60;;;;;;5064351;28;20449;-40
2021/06/25 04:15:20;;;;;;;39.90;28.27;;;17.90;87.70;;;;;;5058247;28;20462;-43
2021/06/25 04:17:46;;;;;;;49.47;30.77;;;17.90;87.60;;;;;;5054842;28;20479;-44
2021/06/25 04:20:17;;;;;;;48.50;34.13;;;17.90;87.60;;;;;;5053520;28;20970;-42
2021/06/25 04:22:44;;;;;;;48.30;33.90;;;17.90;87.20;;;;;;5058784;28;20465;-43
2021/06/25 04:25:11;;;;;;;51.30;35.20;;;17.90;87.30;;;;;;5053119;28;20486;-43
2021/06/25 04:27:38;;;;;;;48.30;33.03;;;17.80;87.40;;;;;;5055365;28;20465;-43
2021/06/25 04:30:09;;;;;;;47.60;31.83;;;17.80;87.50;;;;;;5054333;28;20947;-43
2021/06/25 04:32:35;;;;;;;49.30;33.63;;;17.80;87.70;;;;;;5055519;28;20973;-43
2021/06/25 04:35:02;;;;;;;50.77;32.17;;;17.80;87.90;;;;;;5052057;28;20841;-43
2021/06/25 04:37:29;;;;;;;57.10;34.97;;;17.80;87.90;;;;;;5086962;28;20468;-43
2021/06/25 04:39:56;;;;;;;53.40;35.07;;;17.90;88.00;;;;;;5056429;28;20465;-43
2021/06/25 04:42:23;;;;;;;52.53;34.60;;;17.90;88.10;;;;;;5058563;28;20470;-43
2021/06/25 04:44:49;;;;;;;57.87;34.87;;;17.90;87.70;;;;;;5058131;28;20545;-43
2021/06/25 04:47:16;;;;;;;51.23;36.03;;;17.90;87.40;;;;;;5059024;28;20454;-42
2021/06/25 04:49:43;;;;;;;50.17;34.90;;;18.00;87.20;;;;;;5061165;28;20458;-43
2021/06/25 04:52:10;;;;;;;52.13;34.97;;;17.90;87.30;;;;;;5062880;28;20826;-43
2021/06/25 04:54:36;;;;;;;48.13;33.80;;;17.90;87.40;;;;;;5056485;28;20462;-43
2021/06/25 04:57:04;;;;;;;54.87;35.50;;;17.90;87.30;;;;;;5086965;28;20457;-43
2021/06/25 04:59:31;;;;;;;50.53;34.57;;;17.90;87.30;;;;;;5061385;28;20463;-42
2021/06/25 05:01:57;;;;;;;51.23;35.37;;;17.90;87.30;;;;;;5061817;28;20468;-43
2021/06/25 05:04:24;;;;;;;55.30;35.60;;;17.90;87.60;;;;;;5054431;28;20462;-43
2021/06/25 05:06:51;;;;;;;53.70;36.83;;;17.90;87.90;;;;;;5060059;28;20490;-43
2021/06/25 05:09:18;;;;;;;57.17;37.77;;;18.00;87.80;;;;;;5060789;28;20950;-43
2021/06/25 05:11:45;;;;;;;54.90;38.00;;;18.00;87.60;;;;;;5058770;28;20462;-44
2021/06/25 05:14:11;;;;;;;58.23;36.87;;;18.10;87.60;;;;;;5060851;28;20807;-43
2021/06/25 05:16:38;;;;;;;55.20;35.73;;;18.10;87.70;;;;;;5059145;28;20454;-44
2021/06/25 05:19:05;;;;;;;55.60;35.37;;;18.10;87.80;;;;;;5062062;28;20481;-44
2021/06/25 05:21:32;;;;;;;56.33;36.73;;;18.10;87.60;;;;;;5058944;28;20493;-43
2021/06/25 05:23:58;;;;;;;56.73;37.30;;;18.20;87.80;;;;;;5060003;28;20465;-43
2021/06/25 05:26:25;;;;;;;58.90;38.90;;;18.20;87.60;;;;;;5061936;28;20860;-43
2021/06/25 05:28:52;;;;;;;53.17;36.30;;;18.20;87.40;;;;;;5057214;28;20458;-43
2021/06/25 05:31:19;;;;;;;61.27;34.67;;;18.10;87.00;;;;;;5057572;28;20462;-43
2021/06/25 05:33:46;;;;;;;56.80;37.67;;;18.20;87.10;;;;;;5060445;28;20449;-43
2021/06/25 05:36:12;;;;;;;52.97;35.77;;;18.20;86.80;;;;;;5059236;28;20455;-43
2021/06/25 05:38:39;;;;;;;59.27;36.73;;;18.20;86.40;;;;;;5063356;28;20458;-43
2021/06/25 05:41:06;;;;;;;57.00;37.13;;;18.20;87.00;;;;;;5060907;28;20829;-43
2021/06/25 05:43:33;;;;;;;56.07;37.60;;;18.20;86.70;;;;;;5057962;28;20458;-43
2021/06/25 05:46:00;;;;;;;53.70;36.57;;;18.30;86.50;;;;;;5085898;27;21010;-44
2021/06/25 05:48:28;;;;;;;57.20;37.53;;;18.30;86.70;;;;;;5088713;28;20488;-43
2021/06/25 05:50:54;;;;;;;58.43;37.77;;;18.40;86.30;;;;;;5055779;28;20461;-43
2021/06/25 05:53:21;;;;;;;63.03;37.00;;;18.40;86.60;;;;;;5090815;28;20453;-43
2021/06/25 05:55:48;;;;;;;55.77;37.50;;;18.40;86.30;;;;;;5065744;28;20457;-44
2021/06/25 05:58:15;;;;;;;54.10;36.80;;;18.40;86.20;;;;;;5058087;28;20497;-43
2021/06/25 06:00:42;;;;;;;52.23;35.70;;;18.40;85.10;;;;;;5056976;28;20447;-43
2021/06/25 06:03:09;;;;;;;56.63;36.07;;;18.40;85.30;;;;;;5055924;28;20480;-43
2021/06/25 06:05:36;;;;;;;58.50;37.00;;;18.40;85.80;;;;;;5084251;28;20488;-43
2021/06/25 06:08:03;;;;;;;58.93;37.43;;;18.40;85.80;;;;;;5055777;28;20451;-43
2021/06/25 06:10:30;;;;;;;54.93;34.53;;;18.40;86.00;;;;;;5056054;28;20854;-43
2021/06/25 06:12:58;;;;;;;51.00;34.90;;;18.40;85.40;;;;;;5053586;28;20557;-44
2021/06/25 06:15:25;;;;;;;52.03;35.50;;;18.50;85.20;;;;;;5058349;28;20469;-43
2021/06/25 06:17:52;;;;;;;52.23;34.60;;;18.50;84.80;;;;;;5057734;28;20483;-44
2021/06/25 06:20:24;;;;;;;57.40;36.50;;;18.60;84.90;;;;;;5087524;28;20474;-43
2021/06/25 06:33:52;;;;;;;57.33;35.90;;;18.50;83.30;;;;;;5054406;28;20953;-43
2021/06/25 06:38:54;;;;;;;52.70;34.60;;;18.50;83.90;;;;;;5057562;28;20457;-44
2021/06/25 06:41:22;;;;;;;60.20;36.30;;;18.40;84.50;;;;;;5057532;28;20489;-44
2021/06/25 06:43:49;;;;;;;54.60;34.70;;;18.30;84.90;;;;;;5057153;28;20823;-43
2021/06/25 06:46:16;;;;;;;54.10;35.23;;;18.40;83.80;;;;;;5057540;28;20841;-43
2021/06/25 06:48:45;;;;;;;56.60;35.40;;;18.40;83.70;;;;;;5059992;28;20498;-43
2021/06/25 06:51:15;;;;;;;55.43;34.00;;;18.50;83.40;;;;;;5058143;28;20462;-43
2021/06/25 06:53:43;;;;;;;61.20;33.47;;;18.40;83.70;;;;;;5062132;28;20441;-43
2021/06/25 06:56:12;;;;;;;60.57;37.40;;;18.50;83.20;;;;;;5058628;28;20523;-43
2021/06/25 06:58:39;;;;;;;59.00;36.50;;;18.40;83.40;;;;;;5065563;28;20456;-43
2021/06/25 07:01:07;;;;;;;59.23;34.60;;;18.50;84.10;;;;;;5083621;28;20458;-44
2021/06/25 07:03:54;;;;;;;53.93;35.70;;;18.50;83.40;;;;;;5059582;28;20451;-43
2021/06/25 07:06:21;;;;;;;55.20;35.43;;;18.50;82.70;;;;;;5060645;28;20486;-43
2021/06/25 07:08:48;;;;;;;59.87;36.43;;;18.50;83.30;;;;;;5059069;28;20811;-43
2021/06/25 07:11:15;;;;;;;63.93;38.13;;;18.50;82.60;;;;;;5060039;28;20463;-43
2021/06/25 07:13:42;;;;;;;56.67;38.57;;;18.40;82.90;;;;;;5061933;28;20459;-43
2021/06/25 07:16:12;;;;;;;61.43;37.20;;;18.40;82.80;;;;;;5056710;28;21177;-43
2021/06/25 07:18:40;;;;;;;65.83;38.87;;;18.40;82.70;;;;;;5089660;28;20556;-43
2021/06/25 07:21:07;;;;;;;61.70;39.83;;;18.40;82.90;;;;;;5088465;28;20454;-44
2021/06/25 07:23:33;;;;;;;64.40;38.63;;;18.40;83.20;;;;;;5058996;28;20489;-43
2021/06/25 07:26:00;;;;;;;63.70;41.83;;;18.40;83.00;;;;;;5059735;28;20979;-43
2021/06/25 07:28:27;;;;;;;63.47;40.00;;;18.40;83.00;;;;;;5089297;28;20454;-43
2021/06/25 07:30:57;;;;;;;64.67;39.63;;;18.40;82.70;;;;;;5089427;28;20458;-44
2021/06/25 07:33:25;;;;;;;64.33;39.50;;;18.40;82.90;;;;;;5060973;28;20982;-43
2021/06/25 07:35:54;;;;;;;72.37;42.30;;;18.40;82.50;;;;;;5058630;28;21005;-44
2021/06/25 07:38:21;;;;;;;63.50;39.93;;;18.50;82.10;;;;;;5056083;28;20954;-44
2021/06/25 07:40:48;;;;;;;63.57;39.57;;;18.50;80.60;;;;;;5059494;28;20559;-44
2021/06/25 07:43:18;;;;;;;69.43;40.63;;;18.60;80.50;;;;;;5060227;28;20468;-43
2021/06/25 07:45:45;;;;;;;66.67;40.80;;;18.50;81.20;;;;;;5058820;28;20458;-44
2021/06/25 07:48:11;;;;;;;62.33;40.50;;;18.60;81.50;;;;;;5058817;28;20449;-44
2021/06/25 07:50:38;;;;;;;65.97;41.30;;;18.60;81.80;;;;;;5061736;28;20450;-43
2021/06/25 07:53:07;;;;;;;59.33;38.67;;;18.60;81.50;;;;;;5059860;28;20442;-44
2021/06/25 07:55:34;;;;;;;72.60;40.57;;;18.70;80.30;;;;;;5056121;28;20493;-43
2021/06/25 07:58:00;;;;;;;61.10;41.60;;;18.70;80.80;;;;;;5056043;28;20457;-44
2021/06/25 08:00:27;;;;;;;60.57;37.67;;;18.80;80.50;;;;;;5058900;28;20824;-43
2021/06/25 08:02:55;;;;;;;57.43;38.20;;;18.80;80.60;;;;;;5059128;28;20483;-44
2021/06/25 08:05:22;;;;;;;62.43;40.07;;;18.80;80.20;;;;;;5062746;28;20453;-44
2021/06/25 08:07:48;;;;;;;65.17;41.97;;;18.80;80.30;;;;;;5086824;28;20494;-43
2021/06/25 08:10:15;;;;;;;72.03;41.60;;;18.80;80.10;;;;;;5057474;28;20465;-43
2021/06/25 08:12:42;;;;;;;59.57;39.93;;;18.80;80.10;;;;;;5058664;28;20961;-43
2021/06/25 08:15:09;;;;;;;64.77;41.80;;;18.80;80.20;;;;;;5060446;28;20445;-44
2021/06/25 08:17:37;;;;;;;65.90;40.07;;;18.90;79.40;;;;;;5059225;28;20484;-44
2021/06/25 08:20:05;;;;;;;70.47;41.47;;;18.90;79.60;;;;;;5058918;28;20452;-43
2021/06/25 08:22:32;;;;;;;63.60;41.43;;;18.90;79.90;;;;;;5060477;28;20466;-44
2021/06/25 08:25:00;;;;;;;67.73;41.00;;;19.00;79.60;;;;;;5062169;28;21082;-44
2021/06/25 08:27:27;;;;;;;67.43;43.67;;;19.10;80.20;;;;;;5065187;28;20492;-44
2021/06/25 08:29:55;;;;;;;72.07;44.70;;;19.10;80.10;;;;;;5061388;28;20443;-43
2021/06/25 08:32:22;;;;;;;68.87;42.47;;;19.20;80.30;;;;;;5065008;28;20445;-44
2021/06/25 08:34:49;;;;;;;70.80;44.47;;;19.20;78.80;;;;;;5062431;28;20502;-44
2021/06/25 08:37:16;;;;;;;66.93;44.20;;;19.20;79.60;;;;;;5061792;28;20473;-43
2021/06/25 08:39:43;;;;;;;65.97;42.87;;;19.20;79.50;;;;;;5064693;28;20808;-44
2021/06/25 08:42:09;;;;;;;69.00;44.07;;;19.20;79.30;;;;;;5062178;28;20807;-44
2021/06/25 08:44:39;;;;;;;72.73;43.33;;;19.30;79.80;;;;;;5059616;28;20461;-43
2021/06/25 08:47:07;;;;;;;67.80;42.60;;;19.30;80.00;;;;;;5060074;28;20481;-43
2021/06/25 08:49:37;;;;;;;68.83;44.13;;;19.30;79.90;;;;;;5058915;28;20442;-44
2021/06/25 08:52:06;;;;;;;62.17;39.70;;;19.30;80.00;;;;;;5066946;28;20457;-43
2021/06/25 08:54:34;;;;;;;70.37;44.53;;;19.30;80.00;;;;;;5062570;28;21114;-44
2021/06/25 08:57:04;;;;;;;68.43;43.57;;;19.40;79.40;;;;;;5061594;28;20501;-43
2021/06/25 08:59:31;;;;;;;67.57;42.47;;;19.40;79.10;;;;;;5094856;28;20445;-43
2021/06/25 09:01:59;;;;;;;63.67;41.87;;;19.50;78.90;;;;;;5063972;28;20469;-43
2021/06/25 09:04:41;;;;;;;59.07;39.77;;;19.60;78.60;;;;;;5059267;28;20454;-44
2021/06/25 09:07:09;;;;;;;62.80;41.10;;;19.70;78.30;;;;;;5057527;28;20482;-44
2021/06/25 09:09:41;;;;;;;57.43;38.33;;;19.70;77.30;;;;;;5064132;28;20458;-43
2021/06/25 09:12:12;;;;;;;59.20;40.13;;;19.70;77.50;;;;;;5090925;28;20942;-44
2021/06/25 09:14:59;;;;;;;56.33;39.60;;;19.60;77.80;;;;;;5065189;28;20450;-43
2021/06/25 09:17:27;;;;;;;57.73;38.40;;;19.70;78.00;;;;;;5092105;28;20465;-44
2021/06/25 09:19:55;;;;;;;59.60;38.10;;;19.80;77.80;;;;;;5062210;28;20459;-43
2021/06/25 09:22:22;;;;;;;56.73;38.80;;;19.80;77.30;;;;;;5089761;28;20466;-44
2021/06/25 09:25:04;;;;;;;56.57;38.97;;;19.80;76.70;;;;;;5064113;28;20843;-44
2021/06/25 09:27:33;;;;;;;54.90;36.47;;;19.80;76.60;;;;;;5063207;28;20495;-44
2021/06/25 09:30:09;;;;;;;54.37;37.80;;;19.90;76.10;;;;;;5091028;28;20450;-44
2021/06/25 09:32:43;;;;;;;53.50;35.80;;;20.00;76.10;;;;;;5062276;28;20533;-44
2021/06/25 09:35:19;;;;;;;53.63;34.90;;;20.00;76.50;;;;;;5059467;28;20984;-44
2021/06/25 09:37:48;;;;;;;50.83;34.33;;;20.10;76.80;;;;;;5062244;28;20461;-44
2021/06/25 09:40:17;;;;;;;53.03;32.77;;;20.20;75.80;;;;;;5061477;28;20915;-44
2021/06/25 09:42:46;;;;;;;49.67;33.83;;;20.40;74.80;;;;;;5062903;28;20465;-44
2021/06/25 09:45:14;;;;;;;44.37;33.47;;;20.60;74.10;;;;;;5062157;28;20442;-44
2021/06/25 09:47:45;;;;;;;42.63;30.37;;;20.70;73.10;;;;;;5062177;28;20492;-45
2021/06/25 09:50:20;;;;;;;40.97;30.27;;;20.90;71.50;;;;;;5063232;28;20433;-44
2021/06/25 09:52:57;;;;;;;40.00;28.87;;;21.00;71.70;;;;;;5061158;28;20706;-44
2021/06/25 09:55:47;;;;;;;43.10;29.07;;;21.00;71.80;;;;;;5059423;28;20942;-44
2021/06/25 10:01:28;;;;;;;44.27;29.43;;;21.20;71.20;;;;;;5058852;28;20669;-45
2021/06/25 10:04:01;;;;;;;35.53;26.80;;;21.30;71.40;;;;;;5058353;28;20457;-44
2021/06/25 10:06:33;;;;;;;41.17;27.07;;;21.30;68.90;;;;;;5092274;28;20580;-44
2021/06/25 10:09:01;;;;;;;37.17;29.60;;;21.30;69.80;;;;;;5059338;28;20865;-45
2021/06/25 10:11:30;;;;;;;39.43;27.33;;;21.30;69.10;;;;;;5060088;28;20466;-44
2021/06/25 10:14:02;;;;;;;45.07;30.10;;;21.30;69.30;;;;;;5060707;28;20446;-44
2021/06/25 10:16:29;;;;;;;38.87;29.73;;;21.40;69.20;;;;;;5062414;28;20464;-44
2021/06/25 10:18:58;;;;;;;41.37;28.67;;;21.50;69.00;;;;;;5067168;28;20474;-44
2021/06/25 10:21:31;;;;;;;40.00;29.70;;;21.50;69.70;;;;;;5058569;28;20453;-44
2021/06/25 10:24:00;;;;;;;36.27;27.87;;;21.50;69.60;;;;;;5063669;28;20703;-44
2021/06/25 10:26:27;;;;;;;39.10;27.73;;;21.50;68.80;;;;;;5061910;28;20457;-43
2021/06/25 10:28:55;;;;;;;37.17;28.10;;;21.50;69.70;;;;;;5061408;28;20446;-43
2021/06/25 10:31:24;;;;;;;39.90;29.67;;;21.50;70.00;;;;;;5058095;28;20812;-44
2021/06/25 10:33:53;;;;;;;37.50;29.40;;;21.40;69.90;;;;;;5060564;28;20442;-44
2021/06/25 10:36:26;;;;;;;36.50;27.23;;;21.40;69.40;;;;;;5060019;28;20449;-44
2021/06/25 10:38:54;;;;;;;38.93;28.80;;;21.50;69.50;;;;;;5059031;28;20450;-44
2021/06/25 10:41:22;;;;;;;35.07;27.60;;;21.50;70.30;;;;;;5058399;28;20472;-43
2021/06/25 10:43:54;;;;;;;32.83;27.40;;;21.60;68.50;;;;;;5060988;28;20470;-44
2021/06/25 10:46:34;;;;;;;34.63;27.47;;;21.60;68.80;;;;;;5073263;28;20450;-44
2021/06/25 10:49:08;;;;;;;34.73;27.17;;;21.70;68.90;;;;;;5059594;28;20807;-44
2021/06/25 10:51:37;;;;;;;37.30;27.20;;;21.70;69.50;;;;;;5060591;28;20464;-44
2021/06/25 10:54:23;;;;;;;31.90;25.57;;;21.80;67.40;;;;;;5073292;28;20981;-44
2021/06/25 10:56:49;;;;;;;34.70;25.60;;;21.80;67.90;;;;;;5060001;28;20446;-44
2021/06/25 10:59:26;;;;;;;34.13;25.90;;;21.90;68.50;;;;;;5063593;28;20438;-42
2021/06/25 11:02:07;;;;;;;36.70;26.60;;;22.00;67.60;;;;;;5060383;28;20576;-41
2021/06/25 11:04:39;;;;;;;37.43;26.90;;;22.00;68.00;;;;;;5062951;28;20453;-41
2021/06/25 11:07:13;;;;;;;35.17;26.67;;;22.10;68.20;;;;;;5061419;28;20493;-41
2021/06/25 11:09:57;;;;;;;32.53;25.63;;;22.00;68.60;;;;;;5086578;28;20452;-41
2021/06/25 11:12:29;;;;;;;29.87;23.27;;;21.90;68.40;;;;;;5088958;28;20446;-41
2021/06/25 11:15:05;;;;;;;38.40;28.30;;;21.90;68.00;;;;;;5055920;28;20541;-41
2021/06/25 11:17:54;;;;;;;28.87;23.67;;;22.00;66.50;;;;;;5058475;28;20946;-40
2021/06/25 11:20:22;;;;;;;34.53;25.30;;;22.00;65.50;;;;;;5061521;28;20464;-41
2021/06/25 11:22:59;;;;;;;35.43;26.77;;;22.00;66.50;;;;;;5057570;28;20462;-40
2021/06/25 11:25:39;;;;;;;30.73;25.20;;;21.90;67.50;;;;;;5058804;28;20473;-40
2021/06/25 11:28:09;;;;;;;29.83;23.77;;;21.80;68.20;;;;;;5059122;28;20490;-41
2021/06/25 11:30:51;;;;;;;31.23;24.43;;;21.90;68.40;;;;;;5055972;28;20940;-41
2021/06/25 11:33:37;;;;;;;30.10;24.33;;;21.90;68.90;;;;;;5054611;28;20512;-41
2021/06/25 11:36:13;;;;;;;32.70;24.17;;;22.00;68.20;;;;;;5058277;28;20462;-41
2021/06/25 11:39:08;;;;;;;31.10;23.20;;;22.00;67.90;;;;;;5060475;28;20463;-41
2021/06/25 11:41:38;;;;;;;24.67;20.43;;;22.20;67.90;;;;;;5058696;28;20454;-41
2021/06/25 11:44:18;;;;;;;27.03;21.50;;;22.20;68.00;;;;;;5060936;28;20510;-40
2021/06/25 11:46:53;;;;;;;28.00;22.77;;;22.30;68.00;;;;;;5059222;28;20464;-41
2021/06/25 11:49:20;;;;;;;29.73;22.47;;;22.30;69.00;;;;;;5057460;28;20449;-41
2021/06/25 11:51:48;;;;;;;29.10;22.20;;;22.20;68.80;;;;;;5059245;28;20453;-41
2021/06/25 11:54:20;;;;;;;31.97;21.90;;;22.20;68.20;;;;;;5089244;28;20446;-41
2021/06/25 11:56:48;;;;;;;24.80;22.13;;;22.10;67.90;;;;;;5087559;28;20950;-41
2021/06/25 11:59:16;;;;;;;26.13;21.57;;;22.20;68.40;;;;;;5057171;28;20447;-41
2021/06/25 12:01:55;;;;;;;33.10;21.93;;;22.20;68.40;;;;;;5065243;28;21166;-41
2021/06/25 12:04:31;;;;;;;26.97;19.40;;;22.20;67.90;;;;;;5058485;28;20449;-41
2021/06/25 12:07:00;;;;;;;24.23;19.50;;;22.20;67.80;;;;;;5060482;28;20877;-43
2021/06/25 12:09:43;;;;;;;27.70;20.23;;;22.20;67.00;;;;;;5045846;28;20454;-44
2021/06/25 12:12:31;;;;;;;21.43;17.13;;;22.20;66.30;;;;;;5058631;28;20445;-42
2021/06/25 12:15:07;;;;;;;21.20;16.03;;;22.20;65.70;;;;;;5058726;28;20461;-42
2021/06/25 12:17:48;;;;;;;20.03;17.50;;;22.20;66.90;;;;;;5056811;28;20456;-42
2021/06/25 12:20:28;;;;;;;18.30;15.50;;;22.20;67.60;;;;;;5058768;28;20458;-42
2021/06/25 12:23:01;;;;;;;20.50;15.70;;;22.20;66.40;;;;;;5060174;28;21261;-42
2021/06/25 12:25:41;;;;;;;23.87;17.63;;;22.30;66.60;;;;;;5061012;28;20893;-42
2021/06/25 12:28:12;;;;;;;23.83;18.30;;;22.30;67.50;;;;;;5086957;28;20473;-42
2021/06/25 12:30:43;;;;;;;21.33;17.17;;;22.30;67.90;;;;;;5056285;28;20446;-42
2021/06/25 12:33:10;;;;;;;21.37;16.90;;;22.40;67.40;;;;;;5058769;28;20453;-41
2021/06/25 12:35:41;;;;;;;20.80;15.90;;;22.40;66.50;;;;;;5057371;28;20898;-41
2021/06/25 12:38:13;;;;;;;19.10;15.63;;;22.50;66.50;;;;;;5089028;28;20446;-42
2021/06/25 12:40:48;;;;;;;21.77;15.27;;;22.60;66.70;;;;;;5062591;28;20446;-42
2021/06/25 12:43:20;;;;;;;17.33;13.70;;;22.70;65.20;;;;;;5059939;28;20533;-41
2021/06/25 12:45:58;;;;;;;18.97;15.90;;;22.70;65.60;;;;;;5057772;28;20450;-42
2021/06/25 12:48:50;;;;;;;18.33;13.07;;;22.70;66.30;;;;;;5056710;28;20529;-42
2021/06/25 12:51:24;;;;;;;14.83;13.23;;;22.70;65.60;;;;;;5058119;28;20460;-42
2021/06/25 12:53:55;;;;;;;17.13;13.43;;;22.60;65.70;;;;;;5060862;28;20935;-42
2021/06/25 12:56:24;;;;;;;18.03;14.93;;;22.70;65.80;;;;;;5061858;28;20449;-42